createdAt,value
2019-03-31T00:01:56.966Z,12.20
2019-03-31T00:04:26.886Z,12.40
2019-03-31T00:06:56.758Z,12.40
2019-03-31T00:09:26.799Z,12.20
2019-03-31T00:11:56.588Z,12.40
2019-03-31T00:14:26.413Z,12.40
2019-03-31T00:16:56.305Z,12.30
2019-03-31T00:19:26.229Z,12.10
2019-03-31T00:21:56.528Z,12.10
2019-03-31T00:24:26.729Z,12.00
2019-03-31T00:26:56.758Z,11.90
2019-03-31T00:29:27.143Z,11.90
2019-03-31T00:31:57.019Z,12.20
2019-03-31T00:34:26.759Z,11.90
2019-03-31T00:36:56.970Z,12.00
2019-03-31T00:39:26.758Z,12.00
2019-03-31T00:41:56.626Z,12.10
2019-03-31T00:44:26.377Z,12.10
2019-03-31T00:46:56.151Z,12.10
2019-03-31T00:49:25.864Z,12.00
2019-03-31T00:51:55.933Z,12.00
2019-03-31T00:54:27.775Z,12.00
2019-03-31T00:56:57.241Z,12.10
2019-03-31T00:59:27.095Z,11.90
2019-03-31T01:02:00.447Z,11.80
2019-03-31T01:04:33.273Z,11.70
2019-03-31T01:07:04.431Z,11.70
2019-03-31T01:09:35.691Z,11.70
2019-03-31T01:12:07.179Z,11.50
2019-03-31T01:14:37.361Z,11.50
2019-03-31T01:17:10.128Z,11.60
2019-03-31T01:19:40.793Z,11.50
2019-03-31T01:22:11.528Z,11.50
2019-03-31T01:24:42.032Z,11.50
2019-03-31T01:27:12.985Z,11.40
2019-03-31T01:29:43.159Z,11.20
2019-03-31T01:32:13.539Z,11.40
2019-03-31T01:34:44.142Z,11.40
2019-03-31T01:37:14.794Z,11.30
2019-03-31T01:39:45.019Z,11.20
2019-03-31T01:42:16.459Z,11.30
2019-03-31T01:44:46.929Z,11.10
2019-03-31T01:47:17.496Z,11.20
2019-03-31T01:49:49.627Z,11.20
2019-03-31T01:52:19.601Z,11.20
2019-03-31T01:54:49.879Z,11.20
2019-03-31T01:57:20.194Z,11.20
2019-03-31T01:59:51.686Z,11.20
2019-03-31T02:02:29.840Z,11.20
2019-03-31T02:05:00.600Z,11.00
2019-03-31T02:07:30.889Z,11.10
2019-03-31T02:10:01.170Z,11.20
2019-03-31T02:12:31.265Z,11.20
2019-03-31T02:15:01.365Z,11.10
2019-03-31T02:17:31.382Z,11.00
2019-03-31T02:20:01.415Z,10.90
2019-03-31T02:22:31.872Z,11.00
2019-03-31T02:25:02.278Z,10.60
2019-03-31T02:27:32.331Z,10.80
2019-03-31T02:30:02.455Z,10.90
2019-03-31T02:32:32.661Z,11.00
2019-03-31T02:35:02.884Z,10.90
2019-03-31T02:37:33.342Z,11.00
2019-03-31T02:40:03.836Z,10.80
2019-03-31T02:42:34.623Z,10.80
2019-03-31T02:45:05.528Z,10.80
2019-03-31T02:47:35.744Z,10.80
2019-03-31T02:50:06.443Z,10.80
2019-03-31T02:52:36.914Z,10.80
2019-03-31T02:55:07.398Z,10.80
2019-03-31T02:57:38.237Z,10.60
2019-03-31T03:00:09.790Z,10.60
2019-03-31T03:02:42.447Z,10.70
2019-03-31T03:05:19.714Z,10.60
2019-03-31T03:07:47.490Z,10.40
2019-03-31T03:10:18.160Z,10.30
2019-03-31T03:12:53.118Z,10.40
2019-03-31T03:15:28.900Z,10.20
2019-03-31T03:17:59.067Z,10.20
2019-03-31T03:20:29.244Z,10.20
2019-03-31T03:22:59.630Z,10.30
2019-03-31T03:25:29.934Z,10.40
2019-03-31T03:28:00.318Z,10.50
2019-03-31T03:30:30.512Z,10.50
2019-03-31T03:33:14.505Z,10.30
2019-03-31T03:35:32.442Z,10.30
2019-03-31T03:38:02.636Z,10.30
2019-03-31T03:40:32.756Z,10.10
2019-03-31T03:43:02.917Z,10.20
2019-03-31T03:45:33.010Z,9.80
2019-03-31T03:48:03.356Z,10.10
2019-03-31T03:50:33.473Z,10.00
2019-03-31T03:53:03.593Z,10.10
2019-03-31T03:55:33.963Z,10.10
2019-03-31T03:58:04.367Z,10.00
2019-03-31T04:00:35.046Z,10.00
2019-03-31T04:03:05.236Z,9.90
2019-03-31T04:05:35.391Z,9.70
2019-03-31T04:08:06.453Z,9.70
2019-03-31T04:11:15.278Z,9.70
2019-03-31T04:13:45.629Z,9.60
2019-03-31T04:16:15.762Z,9.70
2019-03-31T04:18:45.893Z,9.70
2019-03-31T04:21:15.857Z,9.80
2019-03-31T04:23:45.859Z,9.50
2019-03-31T04:26:16.010Z,9.40
2019-03-31T04:28:46.415Z,9.60
2019-03-31T04:31:16.796Z,9.60
2019-03-31T04:33:52.567Z,9.50
2019-03-31T04:36:21.598Z,9.50
2019-03-31T04:39:04.968Z,9.40
2019-03-31T04:41:34.956Z,9.50
2019-03-31T04:44:05.205Z,9.50
2019-03-31T04:46:35.297Z,9.20
2019-03-31T04:49:09.665Z,9.50
2019-03-31T04:51:39.703Z,9.80
2019-03-31T04:54:10.333Z,9.80
2019-03-31T04:56:40.657Z,9.90
2019-03-31T04:59:10.765Z,10.00
2019-03-31T05:01:41.015Z,9.60
2019-03-31T05:04:11.179Z,9.50
2019-03-31T05:06:41.246Z,9.40
2019-03-31T05:09:11.733Z,9.30
2019-03-31T05:11:41.986Z,9.20
2019-03-31T05:14:12.075Z,9.30
2019-03-31T05:16:42.117Z,9.30
2019-03-31T05:19:12.714Z,9.40
2019-03-31T05:21:42.896Z,9.40
2019-03-31T05:24:16.821Z,9.40
2019-03-31T05:26:47.186Z,9.40
2019-03-31T05:29:20.112Z,9.50
2019-03-31T05:31:50.498Z,9.60
2019-03-31T05:34:21.604Z,9.60
2019-03-31T05:36:51.859Z,9.60
2019-03-31T05:39:22.376Z,9.60
2019-03-31T05:41:52.568Z,9.60
2019-03-31T05:44:22.809Z,9.60
2019-03-31T05:46:53.133Z,9.50
2019-03-31T05:49:23.091Z,9.80
2019-03-31T05:51:53.476Z,9.90
2019-03-31T05:54:23.653Z,9.80
2019-03-31T05:56:53.860Z,10.20
2019-03-31T05:59:24.310Z,10.20
2019-03-31T06:01:54.368Z,10.00
2019-03-31T06:04:33.191Z,10.10
2019-03-31T06:06:57.672Z,10.10
2019-03-31T06:09:27.758Z,10.20
2019-03-31T06:11:58.354Z,10.20
2019-03-31T06:14:28.562Z,10.20
2019-03-31T06:16:58.681Z,10.30
2019-03-31T06:19:29.422Z,10.30
2019-03-31T06:21:59.245Z,10.40
2019-03-31T06:24:29.521Z,10.70
2019-03-31T06:26:59.373Z,10.90
2019-03-31T06:29:29.872Z,11.30
2019-03-31T06:32:00.019Z,11.60
2019-03-31T06:34:29.847Z,11.70
2019-03-31T06:36:59.821Z,13.00
2019-03-31T06:39:30.106Z,13.50
2019-03-31T06:41:59.981Z,13.90
2019-03-31T06:44:29.938Z,14.20
2019-03-31T06:46:59.947Z,13.30
2019-03-31T06:49:30.340Z,14.20
2019-03-31T06:52:00.759Z,15.00
2019-03-31T06:54:30.725Z,14.50
2019-03-31T06:57:01.673Z,14.80
2019-03-31T06:59:32.195Z,15.20
2019-03-31T07:02:03.321Z,15.40
2019-03-31T07:04:33.395Z,15.80
2019-03-31T07:07:03.222Z,16.00
2019-03-31T07:09:33.184Z,15.50
2019-03-31T07:12:03.340Z,15.40
2019-03-31T07:14:33.136Z,15.70
2019-03-31T07:17:02.909Z,16.00
2019-03-31T07:19:32.698Z,16.10
2019-03-31T07:22:02.450Z,15.70
2019-03-31T07:24:32.201Z,15.60
2019-03-31T07:27:02.076Z,15.90
2019-03-31T07:29:31.929Z,16.20
2019-03-31T07:32:03.849Z,16.10
2019-03-31T07:34:33.729Z,15.90
2019-03-31T07:37:03.485Z,15.80
2019-03-31T07:39:33.835Z,15.70
2019-03-31T07:42:04.212Z,15.70
2019-03-31T07:44:34.906Z,16.00
2019-03-31T07:47:05.117Z,16.20
2019-03-31T07:49:34.967Z,16.50
2019-03-31T07:52:04.686Z,15.60
2019-03-31T07:54:34.872Z,16.00
2019-03-31T07:57:06.968Z,15.70
2019-03-31T07:59:36.456Z,16.60
2019-03-31T08:02:06.295Z,17.00
2019-03-31T08:04:36.033Z,17.00
2019-03-31T08:07:05.958Z,17.10
2019-03-31T08:09:36.374Z,16.90
2019-03-31T08:12:06.101Z,17.20
2019-03-31T08:14:36.027Z,17.60
2019-03-31T08:17:06.397Z,17.40
2019-03-31T08:19:36.273Z,16.90
2019-03-31T08:22:06.033Z,16.30
2019-03-31T08:24:45.219Z,15.80
2019-03-31T08:27:16.377Z,15.90
2019-03-31T08:29:51.985Z,15.60
2019-03-31T08:32:17.857Z,15.30
2019-03-31T08:34:47.607Z,15.20
2019-03-31T08:37:17.460Z,16.00
2019-03-31T08:39:47.336Z,15.40
2019-03-31T08:42:17.366Z,15.60
2019-03-31T08:44:47.513Z,15.90
2019-03-31T08:47:17.369Z,15.90
2019-03-31T08:49:47.153Z,16.40
2019-03-31T08:52:16.883Z,16.50
2019-03-31T08:54:46.949Z,15.80
2019-03-31T08:57:17.506Z,15.80
2019-03-31T08:59:48.118Z,16.10
2019-03-31T09:02:29.845Z,16.60
2019-03-31T09:04:59.698Z,16.90
2019-03-31T09:07:29.935Z,16.80
2019-03-31T09:10:00.368Z,17.50
2019-03-31T09:12:31.028Z,17.80
2019-03-31T09:15:01.167Z,17.60
2019-03-31T09:17:31.771Z,17.70
2019-03-31T09:20:01.722Z,18.00
2019-03-31T09:22:31.696Z,18.00
2019-03-31T09:25:01.565Z,18.10
2019-03-31T09:27:31.790Z,18.70
2019-03-31T09:30:01.851Z,18.00
2019-03-31T09:32:31.821Z,17.90
2019-03-31T09:35:01.649Z,18.00
2019-03-31T09:37:31.507Z,18.20
2019-03-31T09:40:01.740Z,18.30
2019-03-31T09:42:31.656Z,18.40
2019-03-31T09:45:01.870Z,19.00
2019-03-31T09:47:31.655Z,19.20
2019-03-31T09:50:01.587Z,19.60
2019-03-31T09:52:32.670Z,20.00
2019-03-31T09:55:03.210Z,19.40
2019-03-31T09:57:33.261Z,19.80
2019-03-31T10:00:03.200Z,20.20
2019-03-31T10:02:33.509Z,19.50
2019-03-31T10:05:03.478Z,19.90
2019-03-31T10:07:33.860Z,20.20
2019-03-31T10:10:04.777Z,20.30
2019-03-31T10:12:34.825Z,19.30
2019-03-31T10:15:05.634Z,19.10
2019-03-31T10:17:35.549Z,19.10
2019-03-31T10:20:05.991Z,18.90
2019-03-31T10:22:35.945Z,19.20
2019-03-31T10:25:06.912Z,19.50
2019-03-31T10:27:37.170Z,19.80
2019-03-31T10:30:08.267Z,19.50
2019-03-31T10:32:38.062Z,19.90
2019-03-31T10:35:08.573Z,19.60
2019-03-31T10:37:38.376Z,19.60
2019-03-31T10:40:09.129Z,20.00
2019-03-31T10:42:39.562Z,20.00
2019-03-31T10:45:09.946Z,20.00
2019-03-31T10:47:39.720Z,20.30
2019-03-31T10:50:09.886Z,20.40
2019-03-31T10:52:39.745Z,20.30
2019-03-31T10:55:10.096Z,20.30
2019-03-31T10:57:40.515Z,20.00
2019-03-31T11:00:12.278Z,20.00
2019-03-31T11:02:43.241Z,20.20
2019-03-31T11:05:13.159Z,20.20
2019-03-31T11:07:43.119Z,20.30
2019-03-31T11:10:13.387Z,20.50
2019-03-31T11:12:43.287Z,20.60
2019-03-31T11:15:14.031Z,20.30
2019-03-31T11:17:43.774Z,20.40
2019-03-31T11:20:13.618Z,20.80
2019-03-31T11:22:48.528Z,20.90
2019-03-31T11:25:22.109Z,21.10
2019-03-31T11:27:49.931Z,21.20
2019-03-31T11:30:20.609Z,21.60
2019-03-31T11:32:51.225Z,21.50
2019-03-31T11:35:21.061Z,21.10
2019-03-31T11:37:50.891Z,21.30
2019-03-31T11:40:20.881Z,21.30
2019-03-31T11:42:50.678Z,21.60
2019-03-31T11:45:20.932Z,22.10
2019-03-31T11:47:50.685Z,22.20
2019-03-31T11:50:21.554Z,22.50
2019-03-31T11:52:51.341Z,21.80
2019-03-31T11:55:21.258Z,22.30
2019-03-31T11:57:52.324Z,22.10
2019-03-31T12:00:22.553Z,22.10
2019-03-31T12:02:53.068Z,22.40
2019-03-31T12:05:22.817Z,22.10
2019-03-31T12:07:52.549Z,22.10
2019-03-31T12:10:22.305Z,21.50
2019-03-31T12:12:52.517Z,21.20
2019-03-31T12:15:22.285Z,21.00
2019-03-31T12:17:52.500Z,20.70
2019-03-31T12:20:22.578Z,20.90
2019-03-31T12:22:52.410Z,20.80
2019-03-31T12:25:22.243Z,20.80
2019-03-31T12:27:52.182Z,20.80
2019-03-31T12:30:30.035Z,21.50
2019-03-31T12:32:59.974Z,21.90
2019-03-31T12:35:30.261Z,22.20
2019-03-31T12:38:01.201Z,22.70
2019-03-31T12:40:32.681Z,22.90
2019-03-31T12:43:02.585Z,23.30
2019-03-31T12:45:33.530Z,23.70
2019-03-31T12:48:03.367Z,24.10
2019-03-31T12:50:33.229Z,23.70
2019-03-31T12:53:03.128Z,24.10
2019-03-31T12:55:32.928Z,24.60
2019-03-31T12:58:02.842Z,24.70
2019-03-31T13:00:33.062Z,23.70
2019-03-31T13:03:03.510Z,23.80
2019-03-31T13:05:33.761Z,24.40
2019-03-31T13:08:03.779Z,23.90
2019-03-31T13:10:33.622Z,23.80
2019-03-31T13:13:03.553Z,24.10
2019-03-31T13:15:33.946Z,23.60
2019-03-31T13:18:03.738Z,23.90
2019-03-31T13:20:33.551Z,24.30
2019-03-31T13:23:03.569Z,24.40
2019-03-31T13:25:33.534Z,24.60
2019-03-31T13:28:05.621Z,25.10
2019-03-31T13:30:34.913Z,25.60
2019-03-31T13:33:04.843Z,25.00
2019-03-31T13:35:34.790Z,25.90
2019-03-31T13:38:11.132Z,25.80
2019-03-31T13:40:36.417Z,25.50
2019-03-31T13:43:06.312Z,25.80
2019-03-31T13:45:36.641Z,25.80
2019-03-31T13:48:07.722Z,26.10
2019-03-31T13:50:37.873Z,27.00
2019-03-31T13:53:07.820Z,27.40
2019-03-31T13:55:37.683Z,27.40
2019-03-31T13:58:08.507Z,27.50
2019-03-31T14:00:42.815Z,26.70
2019-03-31T14:03:12.673Z,25.60
2019-03-31T14:05:43.205Z,25.60
2019-03-31T14:08:24.992Z,25.90
2019-03-31T14:10:45.050Z,26.00
2019-03-31T14:13:14.777Z,26.70
2019-03-31T14:15:44.571Z,25.00
2019-03-31T14:18:14.413Z,25.20
2019-03-31T14:20:44.597Z,26.00
2019-03-31T14:23:14.359Z,26.40
2019-03-31T14:25:44.638Z,27.60
2019-03-31T14:28:14.560Z,27.40
2019-03-31T14:30:44.479Z,26.50
2019-03-31T14:33:14.401Z,26.40
2019-03-31T14:35:44.545Z,27.60
2019-03-31T14:38:14.398Z,27.60
2019-03-31T14:40:44.314Z,27.20
2019-03-31T14:43:14.249Z,27.60
2019-03-31T14:45:44.129Z,27.50
2019-03-31T14:48:13.985Z,28.10
2019-03-31T14:50:44.007Z,26.90
2019-03-31T14:53:13.816Z,26.40
2019-03-31T14:55:43.638Z,27.60
2019-03-31T14:58:13.457Z,28.00
2019-03-31T15:00:43.241Z,28.40
2019-03-31T15:03:13.057Z,28.30
2019-03-31T15:05:42.942Z,28.70
2019-03-31T15:08:14.637Z,28.90
2019-03-31T15:10:44.664Z,29.30
2019-03-31T15:13:14.775Z,27.30
2019-03-31T15:15:44.761Z,23.30
2019-03-31T15:18:14.621Z,23.50
2019-03-31T15:20:44.456Z,23.40
2019-03-31T15:23:14.273Z,23.10
2019-03-31T15:25:44.166Z,24.70
2019-03-31T15:28:14.993Z,25.90
2019-03-31T15:30:45.180Z,26.40
2019-03-31T15:33:15.034Z,26.90
2019-03-31T15:35:45.082Z,27.70
2019-03-31T15:38:15.189Z,28.50
2019-03-31T15:40:48.467Z,28.40
2019-03-31T15:43:18.194Z,29.10
2019-03-31T15:45:48.364Z,28.60
2019-03-31T15:48:18.600Z,25.90
2019-03-31T15:50:48.809Z,25.00
2019-03-31T15:53:18.665Z,24.30
2019-03-31T15:55:48.458Z,23.50
2019-03-31T15:58:18.403Z,23.20
2019-03-31T16:00:48.287Z,24.40
2019-03-31T16:03:18.102Z,26.80
2019-03-31T16:05:47.921Z,24.70
2019-03-31T16:08:17.301Z,26.60
2019-03-31T16:10:46.739Z,29.30
2019-03-31T16:13:16.184Z,28.10
2019-03-31T16:15:45.517Z,28.40
2019-03-31T16:18:14.842Z,30.30
2019-03-31T16:20:44.181Z,31.40
2019-03-31T16:23:13.517Z,31.50
2019-03-31T16:25:46.797Z,30.20
2019-03-31T16:28:16.423Z,28.10
2019-03-31T16:30:46.116Z,28.00
2019-03-31T16:33:15.395Z,29.30
2019-03-31T16:35:44.656Z,29.10
2019-03-31T16:38:14.038Z,28.30
2019-03-31T16:40:43.313Z,27.90
2019-03-31T16:43:13.132Z,28.10
2019-03-31T16:45:42.421Z,28.10
2019-03-31T16:48:11.689Z,26.40
2019-03-31T16:50:41.022Z,26.50
2019-03-31T16:53:10.769Z,26.30
2019-03-31T16:55:40.035Z,26.20
2019-03-31T16:58:09.765Z,25.90
2019-03-31T17:00:39.261Z,24.00
2019-03-31T17:03:08.897Z,23.10
2019-03-31T17:05:38.190Z,22.80
2019-03-31T17:08:07.488Z,22.40
2019-03-31T17:10:36.825Z,22.00
2019-03-31T17:13:06.466Z,22.20
2019-03-31T17:15:36.116Z,22.00
2019-03-31T17:18:05.526Z,21.70
2019-03-31T17:20:35.483Z,20.50
2019-03-31T17:23:04.692Z,20.40
2019-03-31T17:25:34.123Z,20.00
2019-03-31T17:28:03.565Z,19.60
2019-03-31T17:30:32.889Z,18.90
2019-03-31T17:33:02.928Z,18.00
2019-03-31T17:35:32.470Z,17.80
2019-03-31T17:38:01.848Z,17.60
2019-03-31T17:40:31.673Z,17.30
2019-03-31T17:43:01.788Z,17.30
2019-03-31T17:45:31.225Z,17.10
2019-03-31T17:48:01.027Z,16.90
2019-03-31T17:50:32.448Z,16.80
2019-03-31T17:53:03.897Z,16.70
2019-03-31T17:55:32.805Z,16.60
2019-03-31T17:58:02.617Z,16.40
2019-03-31T18:00:31.933Z,16.40
2019-03-31T18:03:01.187Z,16.30
2019-03-31T18:05:30.627Z,16.20
2019-03-31T18:08:00.303Z,16.20
2019-03-31T18:10:29.636Z,16.20
2019-03-31T18:12:59.417Z,16.00
2019-03-31T18:15:34.007Z,15.90
2019-03-31T18:18:03.435Z,15.90
2019-03-31T18:20:32.922Z,15.90
2019-03-31T18:23:02.242Z,15.80
2019-03-31T18:25:31.919Z,15.80
2019-03-31T18:28:01.790Z,15.70
2019-03-31T18:30:31.407Z,15.70
2019-03-31T18:33:02.077Z,15.60
2019-03-31T18:35:31.902Z,15.60
2019-03-31T18:38:01.197Z,15.50
2019-03-31T18:40:35.183Z,15.40
2019-03-31T18:43:01.551Z,15.40
2019-03-31T18:45:30.864Z,15.40
2019-03-31T18:48:01.264Z,15.30
2019-03-31T18:50:30.770Z,15.30
2019-03-31T18:53:00.754Z,15.20
2019-03-31T18:55:55.356Z,15.20
2019-03-31T18:58:35.698Z,15.20
2019-03-31T19:01:42.652Z,15.10
2019-03-31T19:04:28.472Z,15.10
2019-03-31T19:07:26.007Z,15.00
2019-03-31T19:10:24.967Z,15.00
2019-03-31T19:13:06.060Z,14.90
2019-03-31T19:15:47.639Z,14.80
2019-03-31T19:18:34.671Z,14.80
2019-03-31T19:21:30.263Z,14.80
2019-03-31T19:24:28.630Z,14.80
2019-03-31T19:27:22.842Z,14.70
2019-03-31T19:30:02.769Z,14.70
2019-03-31T19:32:51.377Z,14.60
2019-03-31T19:35:28.686Z,14.50
2019-03-31T19:38:22.792Z,14.50
2019-03-31T19:41:04.465Z,14.40
2019-03-31T19:43:42.842Z,14.40
2019-03-31T19:46:30.713Z,14.40
2019-03-31T19:49:11.577Z,14.20
2019-03-31T19:52:06.329Z,14.00
2019-03-31T19:55:05.178Z,14.00
2019-03-31T19:57:59.741Z,13.90
2019-03-31T20:00:46.887Z,13.80
2019-03-31T20:03:34.491Z,13.80
2019-03-31T20:06:31.971Z,13.60
2019-03-31T20:09:08.383Z,13.50
2019-03-31T20:11:55.385Z,13.40
2019-03-31T20:15:02.578Z,13.20
2019-03-31T20:17:41.086Z,13.10
2019-03-31T20:20:28.330Z,13.10
2019-03-31T20:23:16.725Z,13.00
2019-03-31T20:26:09.115Z,13.00
2019-03-31T20:29:06.367Z,12.90
2019-03-31T20:32:01.222Z,12.90
2019-03-31T20:34:42.003Z,12.90
2019-03-31T20:37:29.390Z,12.80
2019-03-31T20:40:16.756Z,12.80
2019-03-31T20:43:11.147Z,12.80
2019-03-31T20:45:40.424Z,12.70
2019-03-31T20:48:09.751Z,12.70
2019-03-31T20:50:40.829Z,12.60
2019-03-31T20:53:10.009Z,12.60
2019-03-31T20:55:39.325Z,12.50
2019-03-31T20:58:08.693Z,12.50
2019-03-31T21:00:38.018Z,12.50
2019-03-31T21:03:07.193Z,12.40
2019-03-31T21:05:36.893Z,12.50
2019-03-31T21:08:06.190Z,12.40
2019-03-31T21:10:35.930Z,12.30
2019-03-31T21:13:05.934Z,12.30
2019-03-31T21:15:35.594Z,12.30
2019-03-31T21:18:05.207Z,12.10
2019-03-31T21:20:34.532Z,12.20
2019-03-31T21:23:03.744Z,12.20
2019-03-31T21:25:33.044Z,12.10
2019-03-31T21:28:02.634Z,12.10
2019-03-31T21:30:31.973Z,12.00
2019-03-31T21:33:01.410Z,12.10
2019-03-31T21:35:30.981Z,11.90
2019-03-31T21:38:00.167Z,11.90
2019-03-31T21:40:29.829Z,11.90
2019-03-31T21:42:59.117Z,11.80
2019-03-31T21:45:28.777Z,11.70
2019-03-31T21:47:58.041Z,11.70
2019-03-31T21:50:27.365Z,11.60
2019-03-31T21:52:56.655Z,11.50
2019-03-31T21:55:26.250Z,11.40
2019-03-31T21:57:55.978Z,11.40
2019-03-31T22:00:38.647Z,11.30
2019-03-31T22:03:07.947Z,11.30
2019-03-31T22:05:37.265Z,11.30
2019-03-31T22:08:06.970Z,11.30
2019-03-31T22:10:36.437Z,11.30
2019-03-31T22:13:05.742Z,11.20
2019-03-31T22:15:35.026Z,11.10
2019-03-31T22:18:04.434Z,11.20
2019-03-31T22:20:33.783Z,11.20
2019-03-31T22:23:03.168Z,11.20
2019-03-31T22:25:32.466Z,11.10
2019-03-31T22:28:02.518Z,11.20
2019-03-31T22:30:31.698Z,11.10
2019-03-31T22:33:00.902Z,11.20
2019-03-31T22:35:30.094Z,11.10
2019-03-31T22:38:02.232Z,11.10
2019-03-31T22:40:30.979Z,11.00
2019-03-31T22:43:00.604Z,10.90
2019-03-31T22:45:30.115Z,11.00
2019-03-31T22:47:59.701Z,11.00
2019-03-31T22:50:29.252Z,11.10
2019-03-31T22:52:58.538Z,11.10
2019-03-31T22:55:27.720Z,11.00
2019-03-31T22:57:56.957Z,11.10
2019-03-31T23:00:29.210Z,11.00
2019-03-31T23:02:58.734Z,11.00
2019-03-31T23:05:28.269Z,11.00
2019-03-31T23:07:57.990Z,10.60
2019-03-31T23:10:27.184Z,10.80
2019-03-31T23:12:56.865Z,10.80
2019-03-31T23:15:26.167Z,10.60
2019-03-31T23:17:55.472Z,10.50
2019-03-31T23:20:24.661Z,10.40
2019-03-31T23:22:53.895Z,10.40
2019-03-31T23:25:23.522Z,10.50
2019-03-31T23:27:52.909Z,10.30
2019-03-31T23:30:22.190Z,10.30
2019-03-31T23:32:51.484Z,10.30
2019-03-31T23:35:20.688Z,10.30
2019-03-31T23:37:50.075Z,10.30
2019-03-31T23:40:19.302Z,10.40
2019-03-31T23:42:48.809Z,10.30
2019-03-31T23:45:18.101Z,10.30
2019-03-31T23:47:47.286Z,10.30
2019-03-31T23:50:16.513Z,10.20
2019-03-31T23:52:45.825Z,10.20
2019-03-31T23:55:15.509Z,10.10
2019-03-31T23:57:44.808Z,10.00
